sensor_id;sensor_type;location;lat;lon;timestamp;P1;durP1;ratioP1;P2;durP2;ratioP2
23390;SDS011;11868;45.606;5.302;2023-02-02T00:00:54;16.63;;;4.78;;
23390;SDS011;11868;45.606;5.302;2023-02-02T00:03:19;19.73;;;4.25;;
23390;SDS011;11868;45.606;5.302;2023-02-02T00:05:46;20.17;;;4.07;;
23390;SDS011;11868;45.606;5.302;2023-02-02T00:08:13;23.52;;;4.47;;
23390;SDS011;11868;45.606;5.302;2023-02-02T00:10:39;15.70;;;4.45;;
23390;SDS011;11868;45.606;5.302;2023-02-02T00:13:04;23.38;;;4.43;;
23390;SDS011;11868;45.606;5.302;2023-02-02T00:15:29;17.15;;;4.50;;
23390;SDS011;11868;45.606;5.302;2023-02-02T00:17:55;17.08;;;4.18;;
23390;SDS011;11868;45.606;5.302;2023-02-02T00:20:20;13.82;;;4.15;;
23390;SDS011;11868;45.606;5.302;2023-02-02T00:22:46;20.73;;;4.18;;
23390;SDS011;11868;45.606;5.302;2023-02-02T00:25:11;16.45;;;4.35;;
23390;SDS011;11868;45.606;5.302;2023-02-02T00:27:37;14.30;;;4.03;;
23390;SDS011;11868;45.606;5.302;2023-02-02T00:30:03;13.05;;;4.47;;
23390;SDS011;11868;45.606;5.302;2023-02-02T00:32:29;15.20;;;3.80;;
23390;SDS011;11868;45.606;5.302;2023-02-02T00:34:54;19.35;;;4.15;;
23390;SDS011;11868;45.606;5.302;2023-02-02T00:37:19;13.02;;;3.97;;
23390;SDS011;11868;45.606;5.302;2023-02-02T00:39:45;16.73;;;4.25;;
23390;SDS011;11868;45.606;5.302;2023-02-02T00:42:10;16.63;;;4.45;;
23390;SDS011;11868;45.606;5.302;2023-02-02T00:44:35;19.73;;;3.92;;
23390;SDS011;11868;45.606;5.302;2023-02-02T00:47:19;13.80;;;3.90;;
23390;SDS011;11868;45.606;5.302;2023-02-02T00:49:46;17.13;;;3.97;;
23390;SDS011;11868;45.606;5.302;2023-02-02T00:52:11;16.02;;;4.50;;
23390;SDS011;11868;45.606;5.302;2023-02-02T00:54:37;15.63;;;3.85;;
23390;SDS011;11868;45.606;5.302;2023-02-02T00:57:02;10.73;;;3.97;;
23390;SDS011;11868;45.606;5.302;2023-02-02T00:59:27;35.42;;;13.18;;
23390;SDS011;11868;45.606;5.302;2023-02-02T01:01:53;21.63;;;8.85;;
23390;SDS011;11868;45.606;5.302;2023-02-02T01:04:18;21.80;;;8.15;;
23390;SDS011;11868;45.606;5.302;2023-02-02T01:06:43;26.70;;;7.30;;
23390;SDS011;11868;45.606;5.302;2023-02-02T01:09:09;18.42;;;7.75;;
23390;SDS011;11868;45.606;5.302;2023-02-02T01:11:34;23.00;;;7.30;;
23390;SDS011;11868;45.606;5.302;2023-02-02T01:13:59;21.00;;;7.65;;
23390;SDS011;11868;45.606;5.302;2023-02-02T01:16:25;20.05;;;8.15;;
23390;SDS011;11868;45.606;5.302;2023-02-02T01:18:50;18.58;;;8.40;;
23390;SDS011;11868;45.606;5.302;2023-02-02T01:21:16;24.20;;;9.52;;
23390;SDS011;11868;45.606;5.302;2023-02-02T01:23:42;21.95;;;8.57;;
23390;SDS011;11868;45.606;5.302;2023-02-02T01:26:08;21.02;;;9.32;;
23390;SDS011;11868;45.606;5.302;2023-02-02T01:28:34;19.20;;;8.40;;
23390;SDS011;11868;45.606;5.302;2023-02-02T01:31:04;31.08;;;12.30;;
23390;SDS011;11868;45.606;5.302;2023-02-02T01:33:37;29.55;;;11.23;;
23390;SDS011;11868;45.606;5.302;2023-02-02T01:36:04;27.88;;;9.85;;
23390;SDS011;11868;45.606;5.302;2023-02-02T01:38:31;24.80;;;8.80;;
23390;SDS011;11868;45.606;5.302;2023-02-02T01:40:57;25.48;;;7.82;;
23390;SDS011;11868;45.606;5.302;2023-02-02T01:43:24;18.15;;;6.80;;
23390;SDS011;11868;45.606;5.302;2023-02-02T01:45:51;20.65;;;6.95;;
23390;SDS011;11868;45.606;5.302;2023-02-02T01:48:18;28.23;;;10.68;;
23390;SDS011;11868;45.606;5.302;2023-02-02T01:50:46;30.02;;;9.68;;
23390;SDS011;11868;45.606;5.302;2023-02-02T01:53:14;24.48;;;8.63;;
23390;SDS011;11868;45.606;5.302;2023-02-02T01:55:39;20.58;;;7.47;;
23390;SDS011;11868;45.606;5.302;2023-02-02T02:00:50;27.60;;;8.07;;
23390;SDS011;11868;45.606;5.302;2023-02-02T02:03:17;26.15;;;8.50;;
23390;SDS011;11868;45.606;5.302;2023-02-02T02:05:55;18.75;;;7.13;;
23390;SDS011;11868;45.606;5.302;2023-02-02T02:08:27;23.33;;;7.43;;
23390;SDS011;11868;45.606;5.302;2023-02-02T02:10:54;21.08;;;6.95;;
23390;SDS011;11868;45.606;5.302;2023-02-02T02:13:21;18.85;;;5.97;;
23390;SDS011;11868;45.606;5.302;2023-02-02T02:15:53;20.15;;;6.95;;
23390;SDS011;11868;45.606;5.302;2023-02-02T02:24:28;22.02;;;6.05;;
23390;SDS011;11868;45.606;5.302;2023-02-02T02:27:27;17.85;;;5.80;;
23390;SDS011;11868;45.606;5.302;2023-02-02T02:35:23;14.63;;;5.95;;
23390;SDS011;11868;45.606;5.302;2023-02-02T02:38:08;20.05;;;5.82;;
23390;SDS011;11868;45.606;5.302;2023-02-02T02:40:49;22.08;;;6.03;;
23390;SDS011;11868;45.606;5.302;2023-02-02T02:43:19;27.52;;;7.50;;
23390;SDS011;11868;45.606;5.302;2023-02-02T02:45:48;21.13;;;6.88;;
23390;SDS011;11868;45.606;5.302;2023-02-02T02:48:14;24.17;;;7.53;;
23390;SDS011;11868;45.606;5.302;2023-02-02T02:50:40;22.40;;;6.75;;
23390;SDS011;11868;45.606;5.302;2023-02-02T02:53:07;21.05;;;6.97;;
23390;SDS011;11868;45.606;5.302;2023-02-02T02:55:45;18.08;;;5.63;;
23390;SDS011;11868;45.606;5.302;2023-02-02T03:01:10;28.33;;;6.82;;
23390;SDS011;11868;45.606;5.302;2023-02-02T03:03:48;21.52;;;6.75;;
23390;SDS011;11868;45.606;5.302;2023-02-02T03:06:26;16.95;;;5.93;;
23390;SDS011;11868;45.606;5.302;2023-02-02T03:09:09;16.88;;;5.43;;
23390;SDS011;11868;45.606;5.302;2023-02-02T03:14:02;22.80;;;5.53;;
23390;SDS011;11868;45.606;5.302;2023-02-02T03:16:27;22.92;;;5.88;;
23390;SDS011;11868;45.606;5.302;2023-02-02T03:18:53;19.38;;;5.40;;
23390;SDS011;11868;45.606;5.302;2023-02-02T03:21:20;27.85;;;6.38;;
23390;SDS011;11868;45.606;5.302;2023-02-02T03:23:45;20.85;;;5.72;;
23390;SDS011;11868;45.606;5.302;2023-02-02T03:26:11;21.42;;;5.80;;
23390;SDS011;11868;45.606;5.302;2023-02-02T03:28:36;21.38;;;5.65;;
23390;SDS011;11868;45.606;5.302;2023-02-02T03:31:01;17.80;;;5.07;;
23390;SDS011;11868;45.606;5.302;2023-02-02T03:33:27;15.95;;;5.35;;
23390;SDS011;11868;45.606;5.302;2023-02-02T03:35:52;18.63;;;5.40;;
23390;SDS011;11868;45.606;5.302;2023-02-02T03:38:18;18.80;;;6.13;;
23390;SDS011;11868;45.606;5.302;2023-02-02T03:40:43;15.82;;;4.90;;
23390;SDS011;11868;45.606;5.302;2023-02-02T03:43:08;18.50;;;5.22;;
23390;SDS011;11868;45.606;5.302;2023-02-02T03:45:34;14.95;;;4.72;;
23390;SDS011;11868;45.606;5.302;2023-02-02T03:48:00;13.73;;;4.90;;
23390;SDS011;11868;45.606;5.302;2023-02-02T03:50:27;21.25;;;4.88;;
23390;SDS011;11868;45.606;5.302;2023-02-02T03:52:53;19.02;;;5.18;;
23390;SDS011;11868;45.606;5.302;2023-02-02T03:55:19;24.92;;;5.28;;
23390;SDS011;11868;45.606;5.302;2023-02-02T03:57:44;15.20;;;4.38;;
23390;SDS011;11868;45.606;5.302;2023-02-02T04:00:10;13.07;;;4.45;;
23390;SDS011;11868;45.606;5.302;2023-02-02T04:02:35;21.77;;;6.43;;
23390;SDS011;11868;45.606;5.302;2023-02-02T04:05:01;25.30;;;8.00;;
23390;SDS011;11868;45.606;5.302;2023-02-02T04:07:26;20.52;;;7.25;;
23390;SDS011;11868;45.606;5.302;2023-02-02T04:09:51;20.67;;;7.35;;
23390;SDS011;11868;45.606;5.302;2023-02-02T04:12:17;20.73;;;7.57;;
23390;SDS011;11868;45.606;5.302;2023-02-02T04:14:42;18.73;;;6.88;;
23390;SDS011;11868;45.606;5.302;2023-02-02T04:17:07;27.25;;;9.75;;
23390;SDS011;11868;45.606;5.302;2023-02-02T04:19:33;33.97;;;14.32;;
23390;SDS011;11868;45.606;5.302;2023-02-02T04:21:58;71.50;;;28.98;;
23390;SDS011;11868;45.606;5.302;2023-02-02T04:24:23;28.35;;;10.57;;
23390;SDS011;11868;45.606;5.302;2023-02-02T04:26:49;19.58;;;6.20;;
23390;SDS011;11868;45.606;5.302;2023-02-02T04:29:14;19.77;;;6.30;;
23390;SDS011;11868;45.606;5.302;2023-02-02T04:31:39;19.85;;;5.22;;
23390;SDS011;11868;45.606;5.302;2023-02-02T04:34:05;25.38;;;5.18;;
23390;SDS011;11868;45.606;5.302;2023-02-02T04:36:30;21.80;;;5.22;;
23390;SDS011;11868;45.606;5.302;2023-02-02T04:38:55;17.75;;;5.32;;
23390;SDS011;11868;45.606;5.302;2023-02-02T04:41:21;14.55;;;4.78;;
23390;SDS011;11868;45.606;5.302;2023-02-02T04:43:47;21.30;;;6.82;;
23390;SDS011;11868;45.606;5.302;2023-02-02T04:46:12;19.27;;;7.18;;
23390;SDS011;11868;45.606;5.302;2023-02-02T04:48:38;21.98;;;7.03;;
23390;SDS011;11868;45.606;5.302;2023-02-02T04:51:06;22.65;;;7.10;;
23390;SDS011;11868;45.606;5.302;2023-02-02T04:53:33;24.85;;;7.45;;
23390;SDS011;11868;45.606;5.302;2023-02-02T04:56:05;21.45;;;5.88;;
23390;SDS011;11868;45.606;5.302;2023-02-02T04:58:32;23.10;;;6.22;;
23390;SDS011;11868;45.606;5.302;2023-02-02T05:00:57;19.00;;;5.50;;
23390;SDS011;11868;45.606;5.302;2023-02-02T05:03:23;21.65;;;5.40;;
23390;SDS011;11868;45.606;5.302;2023-02-02T05:05:48;22.83;;;5.10;;
23390;SDS011;11868;45.606;5.302;2023-02-02T05:08:13;22.45;;;6.10;;
23390;SDS011;11868;45.606;5.302;2023-02-02T05:10:39;23.98;;;6.35;;
23390;SDS011;11868;45.606;5.302;2023-02-02T05:13:05;16.95;;;5.55;;
23390;SDS011;11868;45.606;5.302;2023-02-02T05:15:31;18.25;;;5.57;;
23390;SDS011;11868;45.606;5.302;2023-02-02T05:17:57;11.52;;;4.22;;
23390;SDS011;11868;45.606;5.302;2023-02-02T05:20:22;19.13;;;5.47;;
23390;SDS011;11868;45.606;5.302;2023-02-02T05:22:47;19.70;;;4.78;;
23390;SDS011;11868;45.606;5.302;2023-02-02T05:25:14;15.90;;;5.20;;
23390;SDS011;11868;45.606;5.302;2023-02-02T05:27:41;18.55;;;4.78;;
23390;SDS011;11868;45.606;5.302;2023-02-02T05:30:08;22.50;;;4.97;;
23390;SDS011;11868;45.606;5.302;2023-02-02T05:32:35;15.30;;;5.00;;
23390;SDS011;11868;45.606;5.302;2023-02-02T05:35:00;21.40;;;5.65;;
23390;SDS011;11868;45.606;5.302;2023-02-02T05:37:26;15.13;;;5.10;;
23390;SDS011;11868;45.606;5.302;2023-02-02T05:39:51;23.10;;;5.60;;
23390;SDS011;11868;45.606;5.302;2023-02-02T05:42:17;18.42;;;6.10;;
23390;SDS011;11868;45.606;5.302;2023-02-02T05:44:43;19.55;;;5.63;;
23390;SDS011;11868;45.606;5.302;2023-02-02T05:47:08;21.10;;;5.90;;
23390;SDS011;11868;45.606;5.302;2023-02-02T05:49:33;17.80;;;4.93;;
23390;SDS011;11868;45.606;5.302;2023-02-02T05:51:59;25.02;;;5.80;;
23390;SDS011;11868;45.606;5.302;2023-02-02T05:54:25;20.60;;;5.75;;
23390;SDS011;11868;45.606;5.302;2023-02-02T05:56:51;15.50;;;5.38;;
23390;SDS011;11868;45.606;5.302;2023-02-02T05:59:18;20.98;;;5.00;;
23390;SDS011;11868;45.606;5.302;2023-02-02T06:01:44;25.63;;;5.57;;
23390;SDS011;11868;45.606;5.302;2023-02-02T06:04:10;18.02;;;6.63;;
23390;SDS011;11868;45.606;5.302;2023-02-02T06:06:35;26.08;;;8.05;;
23390;SDS011;11868;45.606;5.302;2023-02-02T06:09:02;25.75;;;8.10;;
23390;SDS011;11868;45.606;5.302;2023-02-02T06:11:28;44.30;;;14.85;;
23390;SDS011;11868;45.606;5.302;2023-02-02T06:13:53;24.25;;;12.52;;
23390;SDS011;11868;45.606;5.302;2023-02-02T06:16:18;24.52;;;7.93;;
23390;SDS011;11868;45.606;5.302;2023-02-02T06:18:44;15.38;;;4.85;;
23390;SDS011;11868;45.606;5.302;2023-02-02T06:21:09;23.10;;;7.72;;
23390;SDS011;11868;45.606;5.302;2023-02-02T06:23:35;17.48;;;7.25;;
23390;SDS011;11868;45.606;5.302;2023-02-02T06:26:00;23.55;;;6.47;;
23390;SDS011;11868;45.606;5.302;2023-02-02T06:28:27;24.70;;;6.68;;
23390;SDS011;11868;45.606;5.302;2023-02-02T06:30:53;22.10;;;6.65;;
23390;SDS011;11868;45.606;5.302;2023-02-02T06:33:19;30.05;;;7.25;;
23390;SDS011;11868;45.606;5.302;2023-02-02T06:35:44;24.90;;;7.45;;
23390;SDS011;11868;45.606;5.302;2023-02-02T06:38:09;25.77;;;7.28;;
23390;SDS011;11868;45.606;5.302;2023-02-02T06:40:35;25.55;;;7.38;;
23390;SDS011;11868;45.606;5.302;2023-02-02T06:43:01;20.65;;;6.35;;
23390;SDS011;11868;45.606;5.302;2023-02-02T06:45:27;27.77;;;7.65;;
23390;SDS011;11868;45.606;5.302;2023-02-02T06:47:56;23.92;;;6.80;;
23390;SDS011;11868;45.606;5.302;2023-02-02T06:50:22;27.50;;;7.47;;
23390;SDS011;11868;45.606;5.302;2023-02-02T06:52:48;21.42;;;6.80;;
23390;SDS011;11868;45.606;5.302;2023-02-02T06:55:14;25.92;;;7.93;;
23390;SDS011;11868;45.606;5.302;2023-02-02T06:57:40;23.00;;;6.63;;
23390;SDS011;11868;45.606;5.302;2023-02-02T07:00:05;18.08;;;6.63;;
23390;SDS011;11868;45.606;5.302;2023-02-02T07:02:31;47.30;;;19.50;;
23390;SDS011;11868;45.606;5.302;2023-02-02T07:04:56;33.22;;;13.88;;
23390;SDS011;11868;45.606;5.302;2023-02-02T07:07:22;30.70;;;10.48;;
23390;SDS011;11868;45.606;5.302;2023-02-02T07:09:47;27.45;;;13.20;;
23390;SDS011;11868;45.606;5.302;2023-02-02T07:12:12;36.47;;;16.08;;
23390;SDS011;11868;45.606;5.302;2023-02-02T07:14:38;31.23;;;12.15;;
23390;SDS011;11868;45.606;5.302;2023-02-02T07:17:03;35.00;;;11.65;;
23390;SDS011;11868;45.606;5.302;2023-02-02T07:19:28;30.23;;;10.70;;
23390;SDS011;11868;45.606;5.302;2023-02-02T07:21:54;27.27;;;10.32;;
23390;SDS011;11868;45.606;5.302;2023-02-02T07:24:20;27.73;;;8.82;;
23390;SDS011;11868;45.606;5.302;2023-02-02T07:26:45;24.48;;;8.65;;
23390;SDS011;11868;45.606;5.302;2023-02-02T07:29:13;30.80;;;9.15;;
23390;SDS011;11868;45.606;5.302;2023-02-02T07:31:39;31.58;;;9.23;;
23390;SDS011;11868;45.606;5.302;2023-02-02T07:34:05;26.55;;;8.30;;
23390;SDS011;11868;45.606;5.302;2023-02-02T07:36:30;29.55;;;7.63;;
23390;SDS011;11868;45.606;5.302;2023-02-02T07:38:56;31.55;;;7.30;;
23390;SDS011;11868;45.606;5.302;2023-02-02T07:41:22;30.65;;;7.15;;
23390;SDS011;11868;45.606;5.302;2023-02-02T07:43:47;26.67;;;7.40;;
23390;SDS011;11868;45.606;5.302;2023-02-02T07:46:14;21.00;;;7.03;;
23390;SDS011;11868;45.606;5.302;2023-02-02T07:48:40;21.30;;;6.82;;
23390;SDS011;11868;45.606;5.302;2023-02-02T07:51:06;28.80;;;6.80;;
23390;SDS011;11868;45.606;5.302;2023-02-02T07:53:33;23.90;;;6.72;;
23390;SDS011;11868;45.606;5.302;2023-02-02T07:56:09;28.40;;;6.70;;
23390;SDS011;11868;45.606;5.302;2023-02-02T07:58:35;24.73;;;7.32;;
23390;SDS011;11868;45.606;5.302;2023-02-02T08:01:04;25.70;;;6.65;;
23390;SDS011;11868;45.606;5.302;2023-02-02T08:03:31;22.75;;;6.68;;
23390;SDS011;11868;45.606;5.302;2023-02-02T08:05:57;22.70;;;6.78;;
23390;SDS011;11868;45.606;5.302;2023-02-02T08:08:22;28.20;;;5.97;;
23390;SDS011;11868;45.606;5.302;2023-02-02T08:10:48;27.63;;;7.05;;
23390;SDS011;11868;45.606;5.302;2023-02-02T08:13:14;22.92;;;7.00;;
23390;SDS011;11868;45.606;5.302;2023-02-02T08:15:40;23.20;;;7.05;;
23390;SDS011;11868;45.606;5.302;2023-02-02T08:18:05;29.45;;;5.97;;
23390;SDS011;11868;45.606;5.302;2023-02-02T08:20:30;21.40;;;6.63;;
23390;SDS011;11868;45.606;5.302;2023-02-02T08:22:56;23.42;;;6.55;;
23390;SDS011;11868;45.606;5.302;2023-02-02T08:25:21;32.97;;;7.57;;
23390;SDS011;11868;45.606;5.302;2023-02-02T08:27:46;25.40;;;6.90;;
23390;SDS011;11868;45.606;5.302;2023-02-02T08:30:12;30.55;;;8.05;;
23390;SDS011;11868;45.606;5.302;2023-02-02T08:32:37;23.20;;;6.88;;
23390;SDS011;11868;45.606;5.302;2023-02-02T08:35:04;22.20;;;7.00;;
23390;SDS011;11868;45.606;5.302;2023-02-02T08:37:30;20.05;;;6.60;;
23390;SDS011;11868;45.606;5.302;2023-02-02T08:39:55;20.25;;;6.32;;
23390;SDS011;11868;45.606;5.302;2023-02-02T08:42:20;23.77;;;6.53;;
23390;SDS011;11868;45.606;5.302;2023-02-02T08:44:46;26.73;;;8.18;;
23390;SDS011;11868;45.606;5.302;2023-02-02T08:47:11;22.27;;;8.60;;
23390;SDS011;11868;45.606;5.302;2023-02-02T08:49:36;25.60;;;10.48;;
23390;SDS011;11868;45.606;5.302;2023-02-02T08:52:02;30.92;;;10.93;;
23390;SDS011;11868;45.606;5.302;2023-02-02T08:54:27;34.42;;;12.15;;
23390;SDS011;11868;45.606;5.302;2023-02-02T08:56:53;31.27;;;10.77;;
23390;SDS011;11868;45.606;5.302;2023-02-02T08:59:18;34.97;;;9.52;;
23390;SDS011;11868;45.606;5.302;2023-02-02T09:01:43;34.28;;;10.43;;
23390;SDS011;11868;45.606;5.302;2023-02-02T09:04:12;26.40;;;10.38;;
23390;SDS011;11868;45.606;5.302;2023-02-02T09:06:39;32.13;;;10.23;;
23390;SDS011;11868;45.606;5.302;2023-02-02T09:09:06;33.97;;;8.45;;
23390;SDS011;11868;45.606;5.302;2023-02-02T09:11:33;22.63;;;8.80;;
23390;SDS011;11868;45.606;5.302;2023-02-02T09:13:59;28.77;;;9.07;;
23390;SDS011;11868;45.606;5.302;2023-02-02T09:16:30;21.50;;;8.55;;
23390;SDS011;11868;45.606;5.302;2023-02-02T09:18:55;26.48;;;7.93;;
23390;SDS011;11868;45.606;5.302;2023-02-02T09:21:21;26.95;;;7.10;;
23390;SDS011;11868;45.606;5.302;2023-02-02T09:23:47;24.70;;;7.47;;
23390;SDS011;11868;45.606;5.302;2023-02-02T09:26:14;32.50;;;8.00;;
23390;SDS011;11868;45.606;5.302;2023-02-02T09:28:42;29.38;;;7.95;;
23390;SDS011;11868;45.606;5.302;2023-02-02T09:31:09;26.05;;;8.27;;
23390;SDS011;11868;45.606;5.302;2023-02-02T09:33:34;27.27;;;8.18;;
23390;SDS011;11868;45.606;5.302;2023-02-02T09:36:04;24.67;;;8.02;;
23390;SDS011;11868;45.606;5.302;2023-02-02T09:38:31;31.05;;;6.43;;
23390;SDS011;11868;45.606;5.302;2023-02-02T09:40:56;32.38;;;7.47;;
23390;SDS011;11868;45.606;5.302;2023-02-02T09:48:59;27.30;;;6.88;;
23390;SDS011;11868;45.606;5.302;2023-02-02T09:51:27;32.10;;;6.68;;
23390;SDS011;11868;45.606;5.302;2023-02-02T09:53:55;28.88;;;6.45;;
23390;SDS011;11868;45.606;5.302;2023-02-02T09:56:35;32.92;;;7.40;;
23390;SDS011;11868;45.606;5.302;2023-02-02T09:59:04;28.40;;;7.05;;
23390;SDS011;11868;45.606;5.302;2023-02-02T10:01:33;31.77;;;7.47;;
23390;SDS011;11868;45.606;5.302;2023-02-02T10:04:03;29.33;;;7.00;;
23390;SDS011;11868;45.606;5.302;2023-02-02T10:06:41;28.08;;;6.85;;
23390;SDS011;11868;45.606;5.302;2023-02-02T10:09:26;20.67;;;6.13;;
23390;SDS011;11868;45.606;5.302;2023-02-02T10:12:10;25.98;;;6.50;;
23390;SDS011;11868;45.606;5.302;2023-02-02T10:20:01;28.92;;;7.43;;
23390;SDS011;11868;45.606;5.302;2023-02-02T10:22:30;21.17;;;6.82;;
23390;SDS011;11868;45.606;5.302;2023-02-02T10:24:57;26.70;;;6.80;;
23390;SDS011;11868;45.606;5.302;2023-02-02T10:27:38;28.30;;;6.80;;
23390;SDS011;11868;45.606;5.302;2023-02-02T10:30:10;26.20;;;6.35;;
23390;SDS011;11868;45.606;5.302;2023-02-02T10:35:20;25.13;;;6.85;;
23390;SDS011;11868;45.606;5.302;2023-02-02T10:46:13;24.88;;;5.75;;
23390;SDS011;11868;45.606;5.302;2023-02-02T10:48:39;24.65;;;5.10;;
23390;SDS011;11868;45.606;5.302;2023-02-02T10:51:10;22.85;;;5.95;;
23390;SDS011;11868;45.606;5.302;2023-02-02T10:53:39;21.88;;;5.40;;
23390;SDS011;11868;45.606;5.302;2023-02-02T10:56:08;22.58;;;6.68;;
23390;SDS011;11868;45.606;5.302;2023-02-02T11:01:30;28.60;;;6.38;;
23390;SDS011;11868;45.606;5.302;2023-02-02T11:03:55;26.92;;;5.00;;
23390;SDS011;11868;45.606;5.302;2023-02-02T11:06:39;21.13;;;4.75;;
23390;SDS011;11868;45.606;5.302;2023-02-02T11:09:14;35.13;;;8.68;;
23390;SDS011;11868;45.606;5.302;2023-02-02T11:11:43;18.05;;;6.15;;
23390;SDS011;11868;45.606;5.302;2023-02-02T11:14:15;17.73;;;5.40;;
23390;SDS011;11868;45.606;5.302;2023-02-02T11:16:43;18.85;;;4.82;;
23390;SDS011;11868;45.606;5.302;2023-02-02T11:21:40;22.77;;;5.97;;
23390;SDS011;11868;45.606;5.302;2023-02-02T11:27:07;19.67;;;3.97;;
23390;SDS011;11868;45.606;5.302;2023-02-02T11:37:26;35.08;;;8.32;;
23390;SDS011;11868;45.606;5.302;2023-02-02T11:39:52;19.83;;;5.78;;
23390;SDS011;11868;45.606;5.302;2023-02-02T11:42:19;23.65;;;6.30;;
23390;SDS011;11868;45.606;5.302;2023-02-02T11:44:47;20.30;;;5.65;;
23390;SDS011;11868;45.606;5.302;2023-02-02T11:47:24;19.27;;;3.90;;
23390;SDS011;11868;45.606;5.302;2023-02-02T11:49:51;17.30;;;4.47;;
23390;SDS011;11868;45.606;5.302;2023-02-02T11:52:19;19.98;;;5.70;;
23390;SDS011;11868;45.606;5.302;2023-02-02T11:54:47;19.88;;;4.80;;
23390;SDS011;11868;45.606;5.302;2023-02-02T11:57:15;17.85;;;4.55;;
23390;SDS011;11868;45.606;5.302;2023-02-02T11:59:43;19.95;;;4.35;;
23390;SDS011;11868;45.606;5.302;2023-02-02T12:04:44;22.20;;;5.47;;
23390;SDS011;11868;45.606;5.302;2023-02-02T12:07:18;19.35;;;4.30;;
23390;SDS011;11868;45.606;5.302;2023-02-02T12:09:55;24.40;;;4.80;;
23390;SDS011;11868;45.606;5.302;2023-02-02T12:18:14;14.65;;;4.35;;
23390;SDS011;11868;45.606;5.302;2023-02-02T12:21:05;16.83;;;4.22;;
23390;SDS011;11868;45.606;5.302;2023-02-02T12:26:32;19.08;;;3.60;;
23390;SDS011;11868;45.606;5.302;2023-02-02T12:29:02;22.27;;;3.70;;
23390;SDS011;11868;45.606;5.302;2023-02-02T12:31:45;12.82;;;3.22;;
23390;SDS011;11868;45.606;5.302;2023-02-02T12:37:34;18.63;;;3.42;;
23390;SDS011;11868;45.606;5.302;2023-02-02T12:51:16;16.52;;;3.05;;
23390;SDS011;11868;45.606;5.302;2023-02-02T12:59:56;15.38;;;3.75;;
23390;SDS011;11868;45.606;5.302;2023-02-02T13:02:00;14.00;;;3.25;;
23390;SDS011;11868;45.606;5.302;2023-02-02T13:04:54;17.85;;;3.90;;
23390;SDS011;11868;45.606;5.302;2023-02-02T13:10:05;15.57;;;3.08;;
23390;SDS011;11868;45.606;5.302;2023-02-02T13:12:45;16.85;;;3.65;;
23390;SDS011;11868;45.606;5.302;2023-02-02T13:15:18;19.52;;;3.67;;
23390;SDS011;11868;45.606;5.302;2023-02-02T13:17:47;26.73;;;4.55;;
23390;SDS011;11868;45.606;5.302;2023-02-02T13:20:20;19.25;;;3.10;;
23390;SDS011;11868;45.606;5.302;2023-02-02T13:22:48;22.05;;;3.85;;
23390;SDS011;11868;45.606;5.302;2023-02-02T13:25:21;20.65;;;3.83;;
23390;SDS011;11868;45.606;5.302;2023-02-02T13:27:51;13.77;;;3.22;;
23390;SDS011;11868;45.606;5.302;2023-02-02T13:30:35;21.00;;;4.22;;
23390;SDS011;11868;45.606;5.302;2023-02-02T13:33:04;21.55;;;3.33;;
23390;SDS011;11868;45.606;5.302;2023-02-02T13:35:41;18.88;;;4.40;;
23390;SDS011;11868;45.606;5.302;2023-02-02T13:38:20;19.95;;;3.83;;
23390;SDS011;11868;45.606;5.302;2023-02-02T13:40:59;16.83;;;3.83;;
23390;SDS011;11868;45.606;5.302;2023-02-02T13:46:33;17.13;;;3.85;;
23390;SDS011;11868;45.606;5.302;2023-02-02T13:49:17;12.23;;;3.05;;
23390;SDS011;11868;45.606;5.302;2023-02-02T13:54:38;22.08;;;4.32;;
23390;SDS011;11868;45.606;5.302;2023-02-02T14:00:22;21.63;;;3.65;;
23390;SDS011;11868;45.606;5.302;2023-02-02T14:02:55;26.70;;;3.60;;
23390;SDS011;11868;45.606;5.302;2023-02-02T14:08:20;14.90;;;3.40;;
23390;SDS011;11868;45.606;5.302;2023-02-02T14:13:23;16.13;;;3.22;;
23390;SDS011;11868;45.606;5.302;2023-02-02T14:18:55;15.88;;;3.42;;
23390;SDS011;11868;45.606;5.302;2023-02-02T14:32:39;19.40;;;3.63;;
23390;SDS011;11868;45.606;5.302;2023-02-02T14:43:22;19.38;;;3.17;;
23390;SDS011;11868;45.606;5.302;2023-02-02T14:49:20;19.27;;;3.83;;
23390;SDS011;11868;45.606;5.302;2023-02-02T14:51:28;16.15;;;3.50;;
23390;SDS011;11868;45.606;5.302;2023-02-02T14:54:04;18.02;;;4.25;;
23390;SDS011;11868;45.606;5.302;2023-02-02T15:04:34;18.67;;;3.35;;
23390;SDS011;11868;45.606;5.302;2023-02-02T15:07:34;18.23;;;4.78;;
23390;SDS011;11868;45.606;5.302;2023-02-02T15:09:47;16.70;;;3.33;;
23390;SDS011;11868;45.606;5.302;2023-02-02T15:12:17;17.02;;;3.75;;
23390;SDS011;11868;45.606;5.302;2023-02-02T15:30:48;15.43;;;4.40;;
23390;SDS011;11868;45.606;5.302;2023-02-02T15:33:27;19.33;;;5.50;;
23390;SDS011;11868;45.606;5.302;2023-02-02T15:35:56;14.60;;;3.40;;
23390;SDS011;11868;45.606;5.302;2023-02-02T15:38:23;10.30;;;2.83;;
23390;SDS011;11868;45.606;5.302;2023-02-02T15:40:57;12.50;;;4.03;;
23390;SDS011;11868;45.606;5.302;2023-02-02T15:45:53;14.27;;;5.45;;
23390;SDS011;11868;45.606;5.302;2023-02-02T15:48:27;12.23;;;4.72;;
23390;SDS011;11868;45.606;5.302;2023-02-02T15:50:55;13.75;;;2.65;;
23390;SDS011;11868;45.606;5.302;2023-02-02T15:55:48;13.40;;;5.28;;
23390;SDS011;11868;45.606;5.302;2023-02-02T15:58:21;13.68;;;2.40;;
23390;SDS011;11868;45.606;5.302;2023-02-02T16:00:55;14.57;;;3.53;;
23390;SDS011;11868;45.606;5.302;2023-02-02T16:03:33;11.48;;;3.38;;
23390;SDS011;11868;45.606;5.302;2023-02-02T16:06:07;10.48;;;2.80;;
23390;SDS011;11868;45.606;5.302;2023-02-02T16:08:33;14.05;;;3.80;;
23390;SDS011;11868;45.606;5.302;2023-02-02T16:11:02;8.88;;;2.70;;
23390;SDS011;11868;45.606;5.302;2023-02-02T16:15:58;16.15;;;4.57;;
23390;SDS011;11868;45.606;5.302;2023-02-02T16:18:25;13.48;;;2.38;;
23390;SDS011;11868;45.606;5.302;2023-02-02T16:20:50;17.70;;;4.00;;
23390;SDS011;11868;45.606;5.302;2023-02-02T16:23:19;10.27;;;2.80;;
23390;SDS011;11868;45.606;5.302;2023-02-02T16:25:49;11.63;;;2.92;;
23390;SDS011;11868;45.606;5.302;2023-02-02T16:28:16;14.30;;;2.80;;
23390;SDS011;11868;45.606;5.302;2023-02-02T16:30:43;13.13;;;2.88;;
23390;SDS011;11868;45.606;5.302;2023-02-02T16:36:00;15.65;;;3.53;;
23390;SDS011;11868;45.606;5.302;2023-02-02T16:38:31;9.25;;;2.67;;
23390;SDS011;11868;45.606;5.302;2023-02-02T16:41:11;18.38;;;4.63;;
23390;SDS011;11868;45.606;5.302;2023-02-02T16:43:39;11.05;;;2.60;;
23390;SDS011;11868;45.606;5.302;2023-02-02T16:53:44;10.23;;;3.50;;
23390;SDS011;11868;45.606;5.302;2023-02-02T16:58:55;14.05;;;3.80;;
23390;SDS011;11868;45.606;5.302;2023-02-02T17:01:43;16.15;;;6.50;;
23390;SDS011;11868;45.606;5.302;2023-02-02T17:04:35;9.70;;;3.90;;
23390;SDS011;11868;45.606;5.302;2023-02-02T17:07:06;17.35;;;4.15;;
23390;SDS011;11868;45.606;5.302;2023-02-02T17:09:36;16.20;;;4.43;;
23390;SDS011;11868;45.606;5.302;2023-02-02T17:12:26;22.30;;;5.05;;
23390;SDS011;11868;45.606;5.302;2023-02-02T17:17:16;13.38;;;3.47;;
23390;SDS011;11868;45.606;5.302;2023-02-02T17:19:41;19.58;;;3.58;;
23390;SDS011;11868;45.606;5.302;2023-02-02T17:22:06;16.45;;;3.08;;
23390;SDS011;11868;45.606;5.302;2023-02-02T17:24:32;20.42;;;3.53;;
23390;SDS011;11868;45.606;5.302;2023-02-02T17:26:58;14.55;;;3.22;;
23390;SDS011;11868;45.606;5.302;2023-02-02T17:29:24;13.52;;;3.30;;
23390;SDS011;11868;45.606;5.302;2023-02-02T17:31:49;16.17;;;3.30;;
23390;SDS011;11868;45.606;5.302;2023-02-02T17:34:15;19.42;;;2.80;;
23390;SDS011;11868;45.606;5.302;2023-02-02T17:36:41;13.35;;;2.63;;
23390;SDS011;11868;45.606;5.302;2023-02-02T17:39:07;14.10;;;3.20;;